createdAt,value
2023-08-12T00:03:28.527Z,59.33
2023-08-12T00:08:31.802Z,58.55
2023-08-12T00:13:34.997Z,61.95
2023-08-12T00:18:38.227Z,68.20
2023-08-12T00:23:42.017Z,63.89
2023-08-12T00:28:44.669Z,60.23
2023-08-12T00:33:47.380Z,57.57
2023-08-12T00:38:50.671Z,60.84
2023-08-12T00:43:53.277Z,66.56
2023-08-12T00:48:55.930Z,62.38
2023-08-12T00:54:00.283Z,58.57
2023-08-12T00:59:06.204Z,58.99
2023-08-12T01:04:09.001Z,63.83
2023-08-12T01:09:11.976Z,65.75
2023-08-12T01:14:20.420Z,60.64
2023-08-12T01:19:37.638Z,57.65
2023-08-12T01:24:45.002Z,61.26
2023-08-12T01:29:50.625Z,67.01
2023-08-12T01:35:07.814Z,62.64
2023-08-12T01:40:12.626Z,58.97
2023-08-12T01:45:15.640Z,58.89
2023-08-12T01:50:20.104Z,62.63
2023-08-12T01:55:22.780Z,66.60
2023-08-12T02:00:25.785Z,61.29
2023-08-12T02:05:28.447Z,57.89
2023-08-12T02:10:31.466Z,60.67
2023-08-12T02:15:34.116Z,66.52
2023-08-12T02:20:36.797Z,62.13
2023-08-12T02:25:39.482Z,58.16
2023-08-12T02:30:44.514Z,59.87
2023-08-12T02:35:47.143Z,65.67
2023-08-12T02:40:50.874Z,61.74
2023-08-12T02:45:53.792Z,57.72
2023-08-12T02:50:56.808Z,60.38
2023-08-12T02:55:59.477Z,66.24
2023-08-12T03:01:02.182Z,62.40
2023-08-12T03:06:04.857Z,58.17
2023-08-12T03:11:07.515Z,59.23
2023-08-12T03:16:14.957Z,62.75
2023-08-12T03:21:17.525Z,66.74
2023-08-12T03:26:20.166Z,61.15
2023-08-12T03:31:22.892Z,57.41
2023-08-12T03:36:25.584Z,60.34
2023-08-12T03:41:28.424Z,65.87
2023-08-12T03:46:31.206Z,61.50
2023-08-12T03:51:33.975Z,57.46
2023-08-12T03:56:36.635Z,60.27
2023-08-12T04:01:39.324Z,65.55
2023-08-12T04:06:41.945Z,61.13
2023-08-12T04:11:46.355Z,56.86
2023-08-12T04:16:49.488Z,59.65
2023-08-12T04:21:52.395Z,62.08
2023-08-12T04:26:55.046Z,67.37
2023-08-12T04:31:57.735Z,61.45
2023-08-12T04:37:00.304Z,56.69
2023-08-12T04:42:03.088Z,58.68
2023-08-12T04:47:06.118Z,60.26
2023-08-12T04:52:09.242Z,64.74
2023-08-12T04:57:12.145Z,58.00
2023-08-12T05:02:15.086Z,55.73
2023-08-12T05:07:18.688Z,58.83
2023-08-12T05:12:21.407Z,60.75
2023-08-12T05:17:24.130Z,60.73
2023-08-12T05:22:26.753Z,64.96
2023-08-12T05:27:29.481Z,57.70
2023-08-12T05:32:32.065Z,54.64
2023-08-12T05:37:34.812Z,56.64
2023-08-12T05:42:37.649Z,58.74
2023-08-12T05:47:40.547Z,59.58
2023-08-12T05:52:44.982Z,59.71
2023-08-12T05:57:48.003Z,59.77
2023-08-12T06:02:52.735Z,59.84
2023-08-12T06:07:55.724Z,59.92
2023-08-12T06:12:58.391Z,60.04
2023-08-12T06:18:02.136Z,59.47
2023-08-12T06:23:04.930Z,58.39
2023-08-12T06:28:09.692Z,57.83
2023-08-12T06:33:12.349Z,57.34
2023-08-12T06:38:15.144Z,57.31
2023-08-12T06:43:17.928Z,57.74
2023-08-12T06:48:20.610Z,55.61
2023-08-12T06:53:23.666Z,54.35
2023-08-12T06:58:26.464Z,55.58
2023-08-12T07:03:29.239Z,53.97
2023-08-12T07:08:33.308Z,55.28
2023-08-12T07:13:36.181Z,52.53
2023-08-12T07:18:39.166Z,51.63
2023-08-12T07:23:48.656Z,50.62
2023-08-12T07:28:57.612Z,52.59
2023-08-12T07:34:00.383Z,50.28
2023-08-12T07:39:03.282Z,50.99
2023-08-12T07:44:06.105Z,48.18
2023-08-12T07:49:08.802Z,46.26
2023-08-12T07:54:11.470Z,46.42
2023-08-12T07:59:14.094Z,48.45
2023-08-12T08:04:16.754Z,45.83
2023-08-12T08:09:19.323Z,44.38
2023-08-12T08:14:22.043Z,45.76
2023-08-12T08:19:29.937Z,45.31
2023-08-12T08:24:32.917Z,45.45
2023-08-12T08:29:35.567Z,45.72
2023-08-12T08:34:38.275Z,45.55
2023-08-12T08:39:40.929Z,45.93
2023-08-12T08:44:44.588Z,44.74
2023-08-12T08:49:47.737Z,44.50
2023-08-12T08:59:58.636Z,43.33
2023-08-12T09:05:03.593Z,43.34
2023-08-12T09:10:07.883Z,41.36
2023-08-12T09:15:11.651Z,42.53
2023-08-12T09:20:14.375Z,42.75
2023-08-12T09:25:21.375Z,43.24
2023-08-12T09:30:24.120Z,43.24
2023-08-12T09:35:36.872Z,41.01
2023-08-12T09:40:40.707Z,42.60
2023-08-12T09:45:46.983Z,41.18
2023-08-12T09:50:51.093Z,41.94
2023-08-12T09:55:55.243Z,41.02
2023-08-12T10:00:58.511Z,39.46
2023-08-12T10:06:04.265Z,40.58
2023-08-12T10:11:13.358Z,40.96
2023-08-12T10:16:18.262Z,40.82
2023-08-12T10:21:23.935Z,38.65
2023-08-12T10:26:26.713Z,39.33
2023-08-12T10:31:30.303Z,39.31
2023-08-12T10:36:33.190Z,38.90
2023-08-12T10:41:37.282Z,38.02
2023-08-12T10:46:40.170Z,38.11
2023-08-12T10:51:48.788Z,39.16
2023-08-12T10:57:06.957Z,39.64
2023-08-12T11:02:17.105Z,39.01
2023-08-12T11:07:22.101Z,37.95
2023-08-12T11:12:32.215Z,38.29
2023-08-12T11:17:43.072Z,36.71
2023-08-12T11:22:45.859Z,37.94
2023-08-12T11:27:49.357Z,37.61
2023-08-12T11:32:56.943Z,37.71
2023-08-12T11:38:00.207Z,36.97
2023-08-12T11:43:04.537Z,34.62
2023-08-12T11:48:11.110Z,36.91
2023-08-12T11:53:13.855Z,36.41
2023-08-12T11:58:21.453Z,35.40
2023-08-12T12:03:28.997Z,33.62
2023-08-12T12:08:35.004Z,33.89
2023-08-12T12:13:37.922Z,33.16
2023-08-12T12:18:40.620Z,33.85
2023-08-12T12:23:43.307Z,35.45
2023-08-12T12:28:45.995Z,34.79
2023-08-12T12:33:48.698Z,33.69
2023-08-12T12:38:51.368Z,34.37
2023-08-12T12:43:54.094Z,33.35
2023-08-12T12:48:56.830Z,33.41
2023-08-12T12:53:59.492Z,32.21
2023-08-12T12:59:02.230Z,32.89
2023-08-12T13:04:05.088Z,32.54
2023-08-12T13:09:07.826Z,33.05
2023-08-12T13:14:10.567Z,32.33
2023-08-12T13:19:13.227Z,32.41
2023-08-12T13:24:16.513Z,32.46
2023-08-12T13:29:19.213Z,31.96
2023-08-12T13:34:21.895Z,33.59
2023-08-12T13:39:24.556Z,32.01
2023-08-12T13:44:27.295Z,32.41
2023-08-12T13:49:32.652Z,32.68
2023-08-12T13:54:35.258Z,33.22
2023-08-12T13:59:37.774Z,32.40
2023-08-12T14:04:40.522Z,31.18
2023-08-12T14:09:43.668Z,29.38
2023-08-12T14:14:46.851Z,30.79
2023-08-12T14:19:50.920Z,29.37
2023-08-12T14:24:53.950Z,30.14
2023-08-12T14:29:56.615Z,28.99
2023-08-12T14:34:59.298Z,28.27
2023-08-12T14:40:02.643Z,27.97
2023-08-12T14:45:05.740Z,26.71
2023-08-12T14:50:09.763Z,25.59
2023-08-12T14:55:12.417Z,23.77
2023-08-12T15:00:15.728Z,26.74
2023-08-12T15:05:18.613Z,25.73
2023-08-12T15:10:21.428Z,24.87
2023-08-12T15:15:24.031Z,24.23
2023-08-12T15:20:26.930Z,23.71
2023-08-12T15:25:29.631Z,22.94
2023-08-12T15:30:32.547Z,21.22
2023-08-12T15:35:35.397Z,20.05
2023-08-12T15:40:39.863Z,21.66
2023-08-12T15:45:43.569Z,20.66
2023-08-12T15:50:48.927Z,19.60
2023-08-12T15:55:52.943Z,19.18
2023-08-12T16:00:55.730Z,20.20
2023-08-12T16:06:01.701Z,19.29
2023-08-12T16:11:04.760Z,19.63
2023-08-12T16:16:07.572Z,19.61
2023-08-12T16:21:10.330Z,20.97
2023-08-12T16:26:13.101Z,22.37
2023-08-12T16:31:15.805Z,23.46
2023-08-12T16:36:18.670Z,24.52
2023-08-12T16:41:21.445Z,25.37
2023-08-12T16:46:24.489Z,27.01
2023-08-12T16:51:27.863Z,28.59
2023-08-12T16:56:30.432Z,30.75
2023-08-12T17:01:33.476Z,31.80
2023-08-12T17:06:36.451Z,33.24
2023-08-12T17:11:39.230Z,34.14
2023-08-12T17:16:41.982Z,34.76
2023-08-12T17:21:44.989Z,35.36
2023-08-12T17:26:47.865Z,36.01
2023-08-12T17:31:50.515Z,36.77
2023-08-12T17:36:53.485Z,37.47
2023-08-12T17:41:56.178Z,38.13
2023-08-12T17:47:00.378Z,38.30
2023-08-12T17:52:03.204Z,39.12
2023-08-12T17:57:05.870Z,39.63
2023-08-12T18:02:08.610Z,40.51
2023-08-12T18:07:11.637Z,41.65
2023-08-12T18:12:14.576Z,43.06
2023-08-12T18:17:17.623Z,43.38
2023-08-12T18:22:20.557Z,43.76
2023-08-12T18:27:23.227Z,44.46
2023-08-12T18:32:29.369Z,45.17
2023-08-12T18:37:32.612Z,45.38
2023-08-12T18:42:36.840Z,46.39
2023-08-12T18:47:39.609Z,47.58
2023-08-12T18:52:42.444Z,48.16
2023-08-12T18:57:45.164Z,48.88
2023-08-12T19:02:47.816Z,48.83
2023-08-12T19:07:50.575Z,49.35
2023-08-12T19:12:53.264Z,50.82
2023-08-12T19:17:55.984Z,51.40
2023-08-12T19:22:58.777Z,51.19
2023-08-12T19:28:01.458Z,51.20
2023-08-12T19:33:04.824Z,51.71
2023-08-12T19:38:15.325Z,52.04
2023-08-12T19:43:18.014Z,52.43
2023-08-12T19:48:21.098Z,53.13
2023-08-12T19:53:24.777Z,53.27
2023-08-12T19:58:27.446Z,53.85
2023-08-12T20:03:30.462Z,54.20
2023-08-12T20:08:33.283Z,54.75
2023-08-12T20:13:36.038Z,54.09
2023-08-12T20:18:38.732Z,54.14
2023-08-12T20:23:42.450Z,55.32
2023-08-12T20:28:45.074Z,55.36
2023-08-12T20:33:47.740Z,55.87
2023-08-12T20:38:50.590Z,56.19
2023-08-12T20:43:53.285Z,56.20
2023-08-12T20:48:55.945Z,56.97
2023-08-12T20:53:58.583Z,57.03
2023-08-12T20:59:01.373Z,57.15
2023-08-12T21:04:04.265Z,57.93
2023-08-12T21:09:07.083Z,57.53
2023-08-12T21:14:09.793Z,57.46
2023-08-12T21:19:14.375Z,57.58
2023-08-12T21:24:16.973Z,57.47
2023-08-12T21:29:21.418Z,57.65
2023-08-12T21:34:24.213Z,58.04
2023-08-12T21:39:26.884Z,58.52
2023-08-12T21:44:29.752Z,57.96
2023-08-12T21:49:32.621Z,58.01
2023-08-12T21:54:35.261Z,58.11
2023-08-12T21:59:37.956Z,58.31
2023-08-12T22:04:40.655Z,58.52
2023-08-12T22:09:43.254Z,58.38
2023-08-12T22:14:46.348Z,58.48
2023-08-12T22:19:49.855Z,58.63
2023-08-12T22:24:52.602Z,58.80
2023-08-12T22:29:55.274Z,58.92
2023-08-12T22:34:57.933Z,58.84
2023-08-12T22:40:00.644Z,58.67
2023-08-12T22:45:05.216Z,58.69
2023-08-12T22:50:10.452Z,58.87
2023-08-12T22:55:13.191Z,59.03
2023-08-12T23:00:16.252Z,58.66
2023-08-12T23:05:19.382Z,58.74
2023-08-12T23:10:22.230Z,58.84
2023-08-12T23:15:24.953Z,58.67
2023-08-12T23:20:27.660Z,58.67
2023-08-12T23:25:30.534Z,58.36
2023-08-12T23:30:33.361Z,58.28
2023-08-12T23:35:36.338Z,58.70
2023-08-12T23:40:40.314Z,58.42
2023-08-12T23:45:42.922Z,58.72
2023-08-12T23:50:45.633Z,58.31
2023-08-12T23:55:50.998Z,57.93
